Dati Storici

Data ora Umidita' aria (%) Temperatura aria (°C) Rad globale (W/m²) Gonioanemometro (°) Tacoanemometro (m/s) Pioggia (mm)
15-10-2012 16:40 88.5 % 16.476 58.355 114.671 2.514 0
15-10-2012 16:30 86.6 % 16.28 29.715 199.616 1.502 0
15-10-2012 16:20 86.9 % 16.536 19.227 118.51 3.262 0
15-10-2012 16:10 87.9 % 17.319 22.741 166.408 2.671 1
15-10-2012 16:00 87.7 % 18.255 8.469 174.021 6.744 0
15-10-2012 15:50 87.2 % 18.424 14.351 190.52 3.191 0
15-10-2012 15:40 87.1 % 18.632 41.25 151.438 1.737 0
15-10-2012 15:30 87.7 % 18.502 39.301 175.792 2.426 0
15-10-2012 15:20 85.3 % 18.297 40.18 195.055 0.679 1
15-10-2012 15:10 80.9 % 18.854 21.783 199.391 2.987 1
15-10-2012 15:00 80.6 % 19.151 43.802 165.828 0.633 0
15-10-2012 14:50 81.5 % 19.027 45.327 138.661 0.964 0
15-10-2012 14:40 81 % 18.928 54.237 128.218 0.398 0
15-10-2012 14:30 81.3 % 18.751 55.853 155.084 0.901 0
15-10-2012 14:20 81.7 % 18.541 84.285 155.071 1.112 0
15-10-2012 14:10 82.1 % 18.537 58.333 100.132 1.543 0
15-10-2012 14:00 83.8 % 18.508 86.674 114.087 1.858 0
15-10-2012 13:50 89 % 16.831 74.503 99.877 0.98 0
15-10-2012 13:40 88.6 % 16.735 76.522 84.496 0.652 0
15-10-2012 13:30 87.7 % 16.729 90.81 40.022 1.092 0

I dati sono presentati in modo automatico a scopo informativo. In seguito a verifica i dati possono subire modifiche o essere invalidati e non riportati negli archivi definitivi.